Time;durP1;ratioP1;P1;durP2;ratioP2;P2;SDS_P1;SDS_P2;PMS_P1;PMS_P2;Temp;Humidity;BMP_temperature;BMP_pressure;BME280_temperature;BME280_humidity;BME280_pressure;Samples;Min_cycle;Max_cycle;Signal;HPM_P1;HPM_P2
2022/01/16 00:06:24;;;;;;;90.25;15.50;;;;;;;4.86;100.00;101481.34;4938780;29;20465;-80
2022/01/16 00:08:49;;;;;;;85.30;15.95;;;;;;;4.90;100.00;101480.06;4922207;29;20039;-80
2022/01/16 00:11:15;;;;;;;77.70;14.35;;;;;;;4.85;100.00;101455.69;4943032;29;20467;-80
2022/01/16 00:13:41;;;;;;;82.63;15.55;;;;;;;4.88;100.00;101463.41;4938869;29;20036;-80
2022/01/16 00:16:06;;;;;;;86.45;15.85;;;;;;;4.92;100.00;101472.78;4938213;29;20394;-82
2022/01/16 00:18:42;;;;;;;69.70;14.13;;;;;;;4.85;100.00;101455.69;4943462;28;20032;-80
2022/01/16 00:21:08;;;;;;;73.22;14.27;;;;;;;4.92;100.00;101468.28;4921538;29;20039;-80
2022/01/16 00:23:33;;;;;;;63.13;14.23;;;;;;;4.85;100.00;101447.69;4905264;29;20549;-80
2022/01/16 00:25:58;;;;;;;60.33;13.93;;;;;;;4.94;100.00;101457.50;4937916;29;20098;-80
2022/01/16 00:28:24;;;;;;;69.25;13.80;;;;;;;4.91;100.00;101437.28;4937680;29;20042;-80
2022/01/16 00:30:51;;;;;;;68.10;13.23;;;;;;;4.98;100.00;101440.19;4920903;29;20128;-80
2022/01/16 00:33:17;;;;;;;77.68;13.93;;;;;;;4.88;100.00;101432.25;4937739;29;20040;-80
2022/01/16 00:35:43;;;;;;;64.38;13.70;;;;;;;4.95;100.00;101432.50;4938573;29;20023;-80
2022/01/16 00:38:09;;;;;;;66.90;14.07;;;;;;;4.94;100.00;101409.50;4930318;29;20031;-80
2022/01/16 00:40:35;;;;;;;73.70;13.88;;;;;;;4.97;100.00;101409.19;4934592;29;20027;-79
2022/01/16 00:43:01;;;;;;;71.75;14.27;;;;;;;4.90;100.00;101400.94;4935723;29;20184;-80
2022/01/16 00:45:29;;;;;;;74.70;13.85;;;;;;;4.89;100.00;101393.06;4936486;29;20445;-80
2022/01/16 00:47:56;;;;;;;68.25;12.95;;;;;;;4.93;100.00;101391.78;4936730;29;20024;-80
2022/01/16 00:50:21;;;;;;;58.40;12.10;;;;;;;4.89;100.00;101393.06;4920702;29;20024;-80
2022/01/16 00:52:46;;;;;;;73.63;14.63;;;;;;;4.94;100.00;101417.47;4937575;29;20034;-80
2022/01/16 00:55:12;;;;;;;70.28;14.52;;;;;;;4.93;100.00;101415.78;4905451;29;20366;-80
2022/01/16 00:57:37;;;;;;;63.28;12.27;;;;;;;4.92;100.00;101404.28;4937448;29;20063;-80
2022/01/16 01:00:06;;;;;;;61.00;12.27;;;;;;;4.92;100.00;101408.78;4937091;29;20371;-80
2022/01/16 01:02:32;;;;;;;61.17;12.38;;;;;;;4.95;100.00;101422.66;4937683;29;20508;-80
2022/01/16 01:04:57;;;;;;;70.88;12.55;;;;;;;4.92;100.00;101398.13;4920504;29;20050;-79
2022/01/16 01:07:23;;;;;;;65.05;12.38;;;;;;;4.87;100.00;101390.56;4938339;29;20024;-81
2022/01/16 01:09:48;;;;;;;77.35;13.13;;;;;;;4.90;100.00;101373.41;4937611;29;20200;-80
2022/01/16 01:12:25;;;;;;;58.58;12.38;;;;;;;4.97;100.00;101374.53;4937172;28;20024;-80
2022/01/16 01:15:07;;;;;;;66.38;12.30;;;;;;;4.95;100.00;101365.81;4937834;29;20470;-80
2022/01/16 01:17:36;;;;;;;82.43;12.70;;;;;;;4.92;100.00;101366.94;4906921;29;20379;-80
2022/01/16 01:20:04;;;;;;;66.05;12.45;;;;;;;4.90;100.00;101354.75;4938445;29;20429;-80
2022/01/16 01:22:29;;;;;;;69.35;12.15;;;;;;;4.91;100.00;101359.94;4917215;29;20028;-80
2022/01/16 01:24:55;;;;;;;73.38;11.98;;;;;;;4.88;100.00;101349.56;4937794;29;20032;-80
2022/01/16 01:27:26;;;;;;;75.25;12.15;;;;;;;4.81;100.00;101326.31;4911072;29;20374;-80
2022/01/16 01:30:07;;;;;;;73.35;12.90;;;;;;;4.90;100.00;101336.06;4939324;29;20032;-81
2022/01/16 01:32:43;;;;;;;58.92;11.43;;;;;;;4.83;100.00;101329.66;4933169;29;20358;-80
2022/01/16 01:35:11;;;;;;;55.78;10.55;;;;;;;4.77;100.00;101325.78;4936865;29;20545;-79
2022/01/16 01:37:37;;;;;;;71.63;10.13;;;;;;;4.72;100.00;101312.06;4938432;29;20027;-81
2022/01/16 01:40:06;;;;;;;58.90;9.95;;;;;;;4.83;100.00;101340.34;4917522;29;20062;-80
2022/01/16 01:42:35;;;;;;;66.68;11.73;;;;;;;4.81;100.00;101313.00;4940575;29;20031;-80
2022/01/16 01:53:15;;;;;;;54.38;9.80;;;;;;;4.82;100.00;101304.00;4941663;29;20047;-80
2022/01/16 01:55:43;;;;;;;53.28;10.02;;;;;;;4.76;100.00;101299.25;4940341;29;20065;-80
2022/01/16 01:58:09;;;;;;;62.35;10.10;;;;;;;4.78;100.00;101310.63;4907655;29;20098;-80
2022/01/16 02:00:35;;;;;;;55.92;11.85;;;;;;;4.80;100.00;101308.63;4941660;29;20028;-80
2022/01/16 02:05:30;;;;;;;64.68;11.23;;;;;;;4.80;100.00;101300.63;4939970;29;20501;-79
2022/01/16 02:07:56;;;;;;;59.53;11.50;;;;;;;4.68;100.00;101295.50;4940378;29;20099;-80
2022/01/16 02:10:22;;;;;;;49.13;11.07;;;;;;;4.71;100.00;101287.22;4940059;29;20027;-80
2022/01/16 02:12:55;;;;;;;53.78;11.60;;;;;;;4.71;100.00;101289.06;4904800;29;20028;-80
2022/01/16 02:30:21;;;;;;;45.40;8.52;;;;;;;4.75;100.00;101167.78;4869615;29;20435;-80
2022/01/16 02:35:04;;;;;;;38.33;9.90;;;;;;;4.74;100.00;101186.63;4941169;29;20472;-80
2022/01/16 02:37:30;;;;;;;43.75;10.63;;;;;;;4.77;100.00;101186.28;4937387;29;20043;-80
2022/01/16 02:40:02;;;;;;;37.30;9.88;;;;;;;4.67;100.00;101176.56;4938955;29;20024;-79
2022/01/16 02:42:35;;;;;;;41.17;9.23;;;;;;;4.78;100.00;101193.31;4922787;29;20032;-80
2022/01/16 02:45:02;;;;;;;34.10;10.70;;;;;;;4.69;100.00;101176.41;4923001;29;20039;-80
2022/01/16 02:47:28;;;;;;;40.13;10.57;;;;;;;4.76;100.00;101188.13;4911531;29;20051;-80
2022/01/16 02:49:54;;;;;;;39.72;10.80;;;;;;;4.74;100.00;101175.97;4939786;29;20126;-80
2022/01/16 02:52:21;;;;;;;37.90;9.15;;;;;;;4.74;100.00;101159.97;4937359;29;20027;-80
2022/01/16 02:54:51;;;;;;;36.10;9.48;;;;;;;4.74;100.00;101173.28;4923074;29;20059;-80
2022/01/16 02:57:19;;;;;;;35.22;10.05;;;;;;;4.79;100.00;101195.00;4929479;29;20034;-81
2022/01/16 02:59:50;;;;;;;26.92;8.95;;;;;;;4.68;100.00;101167.56;4938847;29;20110;-80
2022/01/16 03:02:17;;;;;;;38.03;9.82;;;;;;;4.65;100.00;101173.19;4922341;29;20051;-80
2022/01/16 03:04:43;;;;;;;40.92;9.93;;;;;;;4.79;100.00;101190.50;4939900;29;20031;-80
2022/01/16 03:07:08;;;;;;;28.90;9.07;;;;;;;4.81;100.00;101193.84;4940802;29;20114;-80
2022/01/16 03:10:01;;;;;;;33.75;9.32;;;;;;;4.80;100.00;101192.19;4939098;29;20107;-79
2022/01/16 03:12:19;;;;;;;28.42;9.00;;;;;;;4.83;100.00;101193.69;4938072;29;20434;-80
2022/01/16 03:14:45;;;;;;;32.30;8.68;;;;;;;4.77;100.00;101178.28;4939934;29;20119;-80
2022/01/16 03:17:11;;;;;;;31.20;9.35;;;;;;;4.79;100.00;101203.81;4918085;29;20120;-80
2022/01/16 03:22:21;;;;;;;32.93;9.47;;;;;;;4.80;100.00;101194.00;4922978;29;20099;-80
2022/01/16 03:24:46;;;;;;;30.50;8.65;;;;;;;4.81;100.00;101193.84;4925715;29;20661;-80
2022/01/16 03:27:15;;;;;;;33.08;9.73;;;;;;;4.76;100.00;101163.28;4943716;28;20035;-80
2022/01/16 03:29:43;;;;;;;29.95;9.48;;;;;;;4.82;100.00;101168.84;4940394;29;20035;-80
2022/01/16 03:32:12;;;;;;;28.08;8.20;;;;;;;4.83;100.00;101167.03;4941126;29;20035;-80
2022/01/16 03:34:38;;;;;;;34.70;8.35;;;;;;;4.82;100.00;101162.69;4940755;29;20126;-79
2022/01/16 03:37:04;;;;;;;31.90;9.30;;;;;;;4.85;100.00;101157.88;4934695;29;20067;-80
2022/01/16 03:39:29;;;;;;;30.88;10.07;;;;;;;4.74;100.00;101144.81;4943838;29;20438;-80
2022/01/16 03:41:56;;;;;;;44.10;11.00;;;;;;;4.84;100.00;101147.38;4940843;29;20035;-79
2022/01/16 03:44:22;;;;;;;32.58;10.63;;;;;;;4.85;100.00;101128.56;4937074;29;20087;-80
2022/01/16 03:46:47;;;;;;;27.35;9.70;;;;;;;4.81;100.00;101123.69;4939151;29;20044;-80
2022/01/16 03:49:16;;;;;;;36.03;10.45;;;;;;;4.81;100.00;101113.88;4904900;29;20526;-79
2022/01/16 03:51:42;;;;;;;37.33;10.02;;;;;;;4.88;100.00;101124.75;4919150;29;20085;-80
2022/01/16 03:54:10;;;;;;;25.67;9.10;;;;;;;4.70;100.00;101096.28;4937780;29;20027;-80
2022/01/16 03:56:36;;;;;;;33.70;9.95;;;;;;;4.88;100.00;101116.75;4922350;29;20110;-80
2022/01/16 03:59:02;;;;;;;32.92;10.48;;;;;;;4.84;100.00;101091.41;4938019;29;20051;-80
2022/01/16 04:01:28;;;;;;;30.20;9.73;;;;;;;4.87;100.00;101107.94;4938030;29;20505;-80
2022/01/16 04:03:55;;;;;;;32.33;9.90;;;;;;;4.88;100.00;101090.09;4920408;29;20560;-79
2022/01/16 04:06:21;;;;;;;29.45;8.63;;;;;;;4.86;100.00;101084.06;4937207;29;20031;-80
2022/01/16 04:08:48;;;;;;;27.52;9.10;;;;;;;4.88;100.00;101077.59;4920072;29;20035;-80
2022/01/16 04:11:13;;;;;;;24.20;8.27;;;;;;;4.90;100.00;101069.44;4936689;29;20024;-80
2022/01/16 04:13:50;;;;;;;24.25;7.32;;;;;;;4.93;100.00;101063.78;4905513;29;20047;-80
2022/01/16 04:16:17;;;;;;;29.52;7.45;;;;;;;4.81;100.00;101046.38;4906731;29;20051;-80
2022/01/16 04:18:42;;;;;;;27.33;7.72;;;;;;;4.90;100.00;101054.28;4937368;29;20110;-80
2022/01/16 04:21:08;;;;;;;27.13;7.43;;;;;;;4.90;100.00;101053.41;4921568;29;20063;-80
2022/01/16 04:23:33;;;;;;;32.65;7.57;;;;;;;4.93;100.00;101055.78;4937500;29;20083;-80
2022/01/16 04:25:58;;;;;;;22.77;6.88;;;;;;;4.94;100.00;101038.81;4936261;29;20090;-80
2022/01/16 04:28:24;;;;;;;22.45;6.95;;;;;;;4.90;100.00;101042.75;4937766;29;20035;-80
2022/01/16 04:30:51;;;;;;;25.92;6.97;;;;;;;4.79;100.00;101019.03;4935823;29;20035;-81
2022/01/16 04:33:16;;;;;;;31.23;6.93;;;;;;;4.86;100.00;101018.25;4935671;29;20051;-79
2022/01/16 04:35:42;;;;;;;23.08;6.85;;;;;;;4.88;100.00;101026.09;4920407;29;20067;-80
2022/01/16 04:38:07;;;;;;;32.13;6.53;;;;;;;4.90;100.00;101018.75;4919972;29;20089;-80
2022/01/16 04:40:41;;;;;;;22.08;6.50;;;;;;;4.91;100.00;101023.94;4920829;29;20083;-80
2022/01/16 04:45:54;;;;;;;24.23;7.07;;;;;;;4.85;100.00;101018.41;4938111;29;20115;-80
2022/01/16 04:48:20;;;;;;;21.35;7.22;;;;;;;4.82;100.00;101003.56;4937578;29;20442;-80
2022/01/16 04:50:45;;;;;;;38.58;9.38;;;;;;;4.84;100.00;101001.59;4919756;29;20031;-79
2022/01/16 04:53:11;;;;;;;26.45;8.02;;;;;;;4.86;100.00;100994.25;4919772;29;20461;-80
2022/01/16 04:55:36;;;;;;;27.02;8.20;;;;;;;4.84;100.00;101003.41;4904571;29;20057;-80
2022/01/16 04:58:01;;;;;;;31.90;7.07;;;;;;;4.86;100.00;100999.56;4936546;29;20366;-80
2022/01/16 05:00:27;;;;;;;24.98;7.70;;;;;;;4.81;100.00;100985.91;4919919;29;20047;-80
2022/01/16 05:02:52;;;;;;;21.15;7.05;;;;;;;4.82;100.00;100992.06;4920552;29;20066;-80
2022/01/16 05:05:17;;;;;;;22.75;7.47;;;;;;;4.83;100.00;100989.22;4919337;29;20114;-80
2022/01/16 05:07:43;;;;;;;23.30;6.95;;;;;;;4.85;100.00;100981.09;4920672;29;20050;-79
2022/01/16 05:10:09;;;;;;;30.23;7.25;;;;;;;4.80;100.00;100967.38;4935593;29;20044;-80
2022/01/16 05:12:37;;;;;;;27.27;7.78;;;;;;;4.91;100.00;100980.47;4927726;29;20027;-80
2022/01/16 05:17:48;;;;;;;27.25;8.10;;;;;;;4.85;100.00;100965.09;4936464;29;20137;-80
2022/01/16 05:20:14;;;;;;;23.00;7.28;;;;;;;4.80;100.00;100948.72;4934815;29;20039;-80
2022/01/16 05:22:40;;;;;;;29.88;7.45;;;;;;;4.86;100.00;100954.25;4936860;29;20040;-80
2022/01/16 05:25:07;;;;;;;29.35;7.53;;;;;;;4.88;100.00;100951.44;4935900;29;20122;-80
2022/01/16 05:27:34;;;;;;;25.73;7.55;;;;;;;4.83;100.00;100938.56;4935567;29;20032;-80
2022/01/16 05:29:59;;;;;;;28.23;7.78;;;;;;;4.87;100.00;100941.78;4937382;29;20410;-80
2022/01/16 05:32:24;;;;;;;33.13;8.48;;;;;;;4.89;100.00;100939.78;4935432;29;20058;-79
2022/01/16 05:34:50;;;;;;;30.00;8.00;;;;;;;4.86;100.00;100935.59;4935623;29;20106;-80
2022/01/16 05:37:15;;;;;;;34.13;8.57;;;;;;;4.79;100.00;100923.06;4932206;29;20066;-80
2022/01/16 05:39:44;;;;;;;34.70;9.02;;;;;;;4.85;100.00;100923.25;4936819;29;20110;-79
2022/01/16 05:42:11;;;;;;;23.20;7.00;;;;;;;4.88;100.00;100911.44;4935369;29;20032;-80
2022/01/16 05:44:36;;;;;;;35.80;8.25;;;;;;;4.85;100.00;100912.59;4936295;29;20389;-80
2022/01/16 05:47:02;;;;;;;27.15;7.35;;;;;;;4.81;100.00;100905.91;4935108;29;20031;-80
2022/01/16 05:49:28;;;;;;;29.15;7.43;;;;;;;4.82;100.00;100896.91;4935578;29;20043;-80
2022/01/16 05:51:54;;;;;;;28.55;7.68;;;;;;;4.86;100.00;100889.44;4911005;29;20393;-80
2022/01/16 05:54:19;;;;;;;29.20;8.00;;;;;;;4.88;100.00;100890.13;4935587;29;20119;-80
2022/01/16 05:56:45;;;;;;;36.88;9.27;;;;;;;4.89;100.00;100875.78;4933294;29;20414;-79
2022/01/16 05:59:10;;;;;;;24.45;7.30;;;;;;;4.79;100.00;100859.09;4937062;29;20107;-79
2022/01/16 06:01:36;;;;;;;36.90;7.88;;;;;;;4.81;100.00;100870.44;4924456;29;20130;-80
2022/01/16 06:04:02;;;;;;;28.25;7.97;;;;;;;4.74;100.00;100856.91;4934936;29;20462;-79
2022/01/16 06:06:28;;;;;;;25.73;7.57;;;;;;;4.81;100.00;100862.44;4935675;28;20036;-80
2022/01/16 06:08:53;;;;;;;26.67;7.35;;;;;;;4.79;100.00;100853.75;4935589;29;20032;-80
2022/01/16 06:11:18;;;;;;;26.63;7.90;;;;;;;4.82;100.00;100858.75;4936932;29;20035;-80
2022/01/16 06:13:44;;;;;;;27.70;8.43;;;;;;;4.86;100.00;100862.78;4936092;29;20398;-80
2022/01/16 06:16:10;;;;;;;27.10;7.65;;;;;;;4.84;100.00;100862.13;4926967;29;20055;-80
2022/01/16 06:18:35;;;;;;;27.88;8.23;;;;;;;4.85;100.00;100853.94;4919560;29;20370;-79
2022/01/16 06:21:00;;;;;;;28.95;7.88;;;;;;;4.80;100.00;100842.06;4919459;29;20377;-79
2022/01/16 06:23:26;;;;;;;27.38;8.00;;;;;;;4.72;100.00;100832.22;4904208;29;20051;-79
2022/01/16 06:25:54;;;;;;;37.72;8.20;;;;;;;4.80;100.00;100832.28;4918959;29;20042;-80
2022/01/16 06:28:22;;;;;;;29.15;7.72;;;;;;;4.77;100.00;100821.06;4906194;29;20030;-80
2022/01/16 06:30:48;;;;;;;26.10;7.90;;;;;;;4.81;100.00;100835.78;4922817;29;20048;-80
2022/01/16 06:33:13;;;;;;;27.00;7.82;;;;;;;4.85;100.00;100837.94;4937639;29;20035;-80
2022/01/16 06:35:38;;;;;;;28.10;7.65;;;;;;;4.62;100.00;100796.88;4937563;29;20050;-80
2022/01/16 06:38:04;;;;;;;31.80;7.90;;;;;;;4.80;100.00;100818.94;4939834;29;20019;-80
2022/01/16 06:40:30;;;;;;;28.00;8.38;;;;;;;4.83;100.00;100825.75;4939623;29;20031;-79
2022/01/16 06:42:56;;;;;;;31.95;8.75;;;;;;;4.79;100.00;100819.91;4938494;29;20079;-79
2022/01/16 06:45:21;;;;;;;28.50;8.57;;;;;;;4.84;100.00;100816.78;4938895;29;20044;-80
2022/01/16 06:47:48;;;;;;;33.40;8.65;;;;;;;4.86;100.00;100817.44;4939300;29;20106;-80
2022/01/16 06:50:14;;;;;;;26.88;9.00;;;;;;;4.86;100.00;100809.44;4939196;29;20042;-80
2022/01/16 06:52:39;;;;;;;30.42;9.00;;;;;;;4.83;100.00;100807.94;4954969;28;20773;-80
2022/01/16 06:55:06;;;;;;;39.30;10.00;;;;;;;4.79;100.00;100814.59;4920298;29;20110;-80
2022/01/16 06:57:31;;;;;;;33.65;9.20;;;;;;;4.83;100.00;100817.75;4939135;29;20027;-80
2022/01/16 06:59:57;;;;;;;34.58;9.98;;;;;;;4.78;100.00;100801.44;4937491;29;20039;-80
2022/01/16 07:02:22;;;;;;;35.00;9.98;;;;;;;4.80;100.00;100807.44;4947792;29;20122;-81
2022/01/16 07:04:48;;;;;;;42.70;10.70;;;;;;;4.78;100.00;100804.94;4920170;29;20063;-81
2022/01/16 07:07:14;;;;;;;33.67;10.25;;;;;;;4.80;100.00;100813.63;4946591;29;20042;-81
2022/01/16 07:09:39;;;;;;;31.08;9.80;;;;;;;4.72;100.00;100798.41;4946878;29;20042;-83
2022/01/16 07:12:06;;;;;;;30.75;9.73;;;;;;;4.63;100.00;100772.72;4933641;28;20124;-85
2022/01/16 07:14:32;;;;;;;33.58;10.40;;;;;;;4.87;100.00;100813.81;4931729;29;20028;-82
2022/01/16 07:16:57;;;;;;;33.80;10.18;;;;;;;4.78;100.00;100793.44;4935512;29;20051;-80
2022/01/16 07:19:23;;;;;;;37.88;10.60;;;;;;;4.82;100.00;100811.59;4945537;29;20042;-83
2022/01/16 07:21:48;;;;;;;31.38;11.13;;;;;;;4.87;100.00;100811.97;4924500;29;20027;-88
2022/01/16 07:24:16;;;;;;;29.48;10.75;;;;;;;4.89;100.00;100803.78;4946583;29;20020;-88
2022/01/16 07:26:44;;;;;;;38.05;11.30;;;;;;;4.91;100.00;100804.47;4961904;29;20034;-89
2022/01/16 07:31:45;;;;;;;38.65;11.85;;;;;;;4.01;100.00;100662.94;5244311;23;20040;-88
2022/01/16 07:34:11;;;;;;;41.53;12.43;;;;;;;4.22;100.00;100695.31;4999651;23;20133;-89
2022/01/16 07:36:38;;;;;;;37.53;12.60;;;;;;;4.28;100.00;100695.69;4941900;28;20096;-87
2022/01/16 07:39:04;;;;;;;45.08;12.90;;;;;;;4.08;100.00;100652.50;4940591;28;20024;-88
2022/01/16 07:41:29;;;;;;;43.40;13.88;;;;;;;4.95;100.00;100784.47;4940463;29;20055;-88
2022/01/16 07:43:55;;;;;;;37.35;13.70;;;;;;;4.92;100.00;100798.13;4933838;23;20044;-87
2022/01/16 07:46:21;;;;;;;44.75;14.25;;;;;;;4.40;100.00;100702.34;4922494;29;20033;-87
2022/01/16 07:48:46;;;;;;;42.58;14.68;;;;;;;4.49;100.00;100693.41;4920761;29;20039;-86
2022/01/16 07:51:12;;;;;;;36.22;11.57;;;;;;;4.99;100.00;100766.31;4920978;29;20090;-86
2022/01/16 07:53:38;;;;;;;45.60;14.52;;;;;;;4.46;100.00;100699.06;4920424;29;20013;-86
2022/01/16 07:56:04;;;;;;;47.97;15.40;;;;;;;4.20;100.00;100641.34;4922008;29;20037;-89
2022/01/16 07:58:30;;;;;;;49.35;16.20;;;;;;;4.61;100.00;100692.09;4923263;29;20060;-89
2022/01/16 08:00:58;;;;;;;47.10;16.58;;;;;;;4.45;100.00;100652.09;4974090;23;20044;-89
2022/01/16 08:03:24;;;;;;;45.08;16.00;;;;;;;4.35;100.00;100640.75;4926564;29;20040;-88
2022/01/16 08:05:50;;;;;;;42.00;15.50;;;;;;;4.23;100.00;100634.88;4940395;28;20028;-86
2022/01/16 08:08:15;;;;;;;40.35;14.48;;;;;;;4.09;100.00;100595.56;4940582;29;20013;-88
2022/01/16 08:10:41;;;;;;;48.17;15.82;;;;;;;4.44;100.00;100647.78;4933542;29;20047;-84
2022/01/16 08:13:07;;;;;;;37.85;15.57;;;;;;;4.56;100.00;100681.09;4940513;29;20051;-82
2022/01/16 08:15:33;;;;;;;44.17;16.83;;;;;;;4.61;100.00;100675.28;4937973;28;20108;-84
2022/01/16 08:17:59;;;;;;;45.83;18.40;;;;;;;4.46;100.00;100651.94;4944187;28;20016;-81
2022/01/16 09:35:38;;;;;;;38.28;17.13;;;;;;;5.42;100.00;100639.78;4921548;29;20047;-80
2022/01/16 09:38:05;;;;;;;43.20;18.20;;;;;;;5.33;100.00;100619.44;4907009;29;20052;-81
2022/01/16 09:40:31;;;;;;;44.03;17.52;;;;;;;5.46;100.00;100626.94;4905189;29;20031;-81
2022/01/16 09:42:58;;;;;;;38.33;17.40;;;;;;;5.47;100.00;100620.63;4906787;29;20031;-82
2022/01/16 09:45:23;;;;;;;39.67;18.05;;;;;;;5.44;100.00;100613.78;4924417;29;20054;-81
2022/01/16 09:47:49;;;;;;;41.13;17.77;;;;;;;5.39;100.00;100616.94;4924030;29;20396;-82
2022/01/16 09:50:18;;;;;;;47.67;19.27;;;;;;;5.60;100.00;100627.09;4907772;29;20028;-81
2022/01/16 09:52:46;;;;;;;43.83;17.27;;;;;;;5.39;100.00;100600.09;4918355;29;20028;-80
2022/01/16 09:55:12;;;;;;;52.25;17.85;;;;;;;5.60;100.00;100624.41;4916934;29;20059;-80
2022/01/16 09:57:38;;;;;;;47.28;18.63;;;;;;;5.62;100.00;100635.72;4902002;29;20039;-81
2022/01/16 10:00:07;;;;;;;45.90;18.98;;;;;;;5.11;100.00;100571.16;4938078;23;20052;-84
2022/01/16 10:02:33;;;;;;;40.60;17.45;;;;;;;5.32;100.00;100580.44;4919514;29;20111;-84
2022/01/16 10:04:58;;;;;;;41.30;16.73;;;;;;;4.89;100.00;100529.19;4922644;29;20032;-80
2022/01/16 10:07:24;;;;;;;38.88;17.13;;;;;;;5.23;100.00;100600.13;4933610;29;20028;-82
2022/01/16 10:10:13;;;;;;;40.42;16.85;;;;;;;5.43;100.00;100620.13;4918449;29;20019;-84
2022/01/16 10:12:49;;;;;;;44.58;17.60;;;;;;;5.11;100.00;100554.31;5028107;23;20201;-79
2022/01/16 10:15:34;;;;;;;44.22;18.45;;;;;;;5.62;100.00;100642.91;4921037;28;20081;-84
2022/01/16 10:18:04;;;;;;;46.67;16.60;;;;;;;5.58;100.00;100641.59;4916234;29;20134;-80
2022/01/16 10:20:41;;;;;;;47.67;18.33;;;;;;;5.55;100.00;100642.75;4934203;29;20024;-80
2022/01/16 10:23:18;;;;;;;39.50;17.10;;;;;;;5.53;100.00;100630.59;4924627;29;20082;-79
2022/01/16 10:25:47;;;;;;;50.42;18.88;;;;;;;5.60;100.00;100644.94;4922999;29;20039;-80
2022/01/16 10:28:19;;;;;;;44.33;18.20;;;;;;;5.56;100.00;100615.09;4916231;29;20024;-84
2022/01/16 10:30:47;;;;;;;47.05;17.77;;;;;;;5.66;100.00;100630.88;4937793;29;20447;-83
2022/01/16 10:33:19;;;;;;;44.03;17.38;;;;;;;4.78;100.00;100476.22;5064448;23;20072;-80
2022/01/16 10:35:47;;;;;;;46.60;16.85;;;;;;;5.55;100.00;100610.72;4920693;29;20034;-80
2022/01/16 10:38:25;;;;;;;46.45;15.80;;;;;;;5.35;100.00;100566.75;4896619;29;20054;-81
2022/01/16 10:40:52;;;;;;;43.25;15.25;;;;;;;5.23;100.00;100542.31;4898368;29;20032;-81
2022/01/16 10:43:21;;;;;;;34.55;12.75;;;;;;;5.34;100.00;100543.75;4921519;29;20045;-81
2022/01/16 10:45:51;;;;;;;35.85;12.30;;;;;;;5.70;100.00;100586.84;4878668;29;20025;-82
2022/01/16 10:48:22;;;;;;;31.35;11.07;;;;;;;5.75;100.00;100586.31;4925951;29;20060;-82
2022/01/16 10:50:48;;;;;;;33.75;12.07;;;;;;;5.76;100.00;100567.47;4918278;29;20032;-84
2022/01/16 10:53:15;;;;;;;37.10;13.13;;;;;;;5.77;100.00;100547.75;4904844;29;20020;-85
2022/01/16 10:55:59;;;;;;;30.00;10.20;;;;;;;5.78;100.00;100556.59;4921316;29;20450;-85
2022/01/16 10:58:26;;;;;;;33.10;9.95;;;;;;;5.76;100.00;100546.13;4925560;29;20024;-79
2022/01/16 11:00:54;;;;;;;30.88;9.82;;;;;;;5.73;100.00;100537.59;4903585;29;20024;-82
2022/01/16 11:03:22;;;;;;;26.88;9.23;;;;;;;5.73;100.00;100530.44;4918069;29;20067;-79
2022/01/16 11:05:50;;;;;;;26.55;8.77;;;;;;;5.71;100.00;100529.78;4900630;29;20028;-80
2022/01/16 11:08:18;;;;;;;27.70;8.57;;;;;;;5.73;100.00;100524.25;4899767;29;20032;-80
2022/01/16 11:10:44;;;;;;;28.05;8.38;;;;;;;5.76;100.00;100523.91;4915136;29;20048;-79
2022/01/16 11:13:12;;;;;;;24.98;6.97;;;;;;;5.77;100.00;100522.91;4919712;29;20443;-80
2022/01/16 11:15:41;;;;;;;23.30;7.03;;;;;;;5.78;100.00;100508.53;4916358;29;20028;-80
2022/01/16 11:18:09;;;;;;;19.42;6.50;;;;;;;5.79;100.00;100516.38;4920935;29;20028;-81
2022/01/16 11:20:37;;;;;;;23.50;6.13;;;;;;;5.80;100.00;100496.69;4903295;29;20040;-80
2022/01/16 11:26:10;;;;;;;26.02;4.68;;;;;;;5.85;100.00;100488.16;4918671;29;20036;-79
2022/01/16 11:28:35;;;;;;;14.63;3.22;;;;;;;5.93;100.00;100496.16;4903869;29;20036;-80
2022/01/16 11:31:04;;;;;;;21.60;4.22;;;;;;;5.95;100.00;100495.97;4909456;29;20035;-80
2022/01/16 11:33:32;;;;;;;19.10;3.22;;;;;;;5.92;100.00;100489.09;4922454;29;20421;-79
2022/01/16 11:36:21;;;;;;;18.05;3.45;;;;;;;5.94;100.00;100497.81;4900330;29;20043;-79
2022/01/16 11:38:51;;;;;;;18.98;2.80;;;;;;;5.91;100.00;100482.09;4902724;29;20051;-81
2022/01/16 11:41:23;;;;;;;12.05;2.33;;;;;;;6.04;100.00;100492.25;4918877;29;20371;-80
2022/01/16 11:43:50;;;;;;;17.75;2.95;;;;;;;6.04;100.00;100477.03;4921934;29;20036;-80
2022/01/16 11:46:24;;;;;;;16.95;2.53;;;;;;;6.02;100.00;100462.19;4920514;29;20036;-81
2022/01/16 11:49:19;;;;;;;12.05;2.67;;;;;;;6.18;100.00;100467.41;4903604;29;20032;-81
2022/01/16 11:51:51;;;;;;;17.88;2.58;;;;;;;6.23;100.00;100459.72;4924068;29;20020;-81
2022/01/16 11:54:19;;;;;;;17.15;3.00;;;;;;;6.32;100.00;100460.44;4928532;29;20051;-79
2022/01/16 11:56:44;;;;;;;17.73;2.85;;;;;;;6.25;100.00;100449.66;4926978;29;20044;-80
2022/01/16 11:59:10;;;;;;;17.77;2.92;;;;;;;6.26;100.00;100459.34;4926685;29;20028;-80
2022/01/16 12:01:54;;;;;;;16.77;1.92;;;;;;;6.24;100.00;100450.69;4919812;29;20116;-80
2022/01/16 12:04:29;;;;;;;22.88;2.67;;;;;;;6.21;100.00;100459.03;4918759;29;20354;-79
2022/01/16 12:07:00;;;;;;;24.00;3.13;;;;;;;6.24;100.00;100444.50;4918428;29;20056;-80
2022/01/16 12:09:35;;;;;;;20.80;2.78;;;;;;;6.22;100.00;100449.19;4915496;29;20032;-80
2022/01/16 12:12:02;;;;;;;25.05;3.55;;;;;;;6.26;100.00;100435.31;4918732;29;20103;-80
2022/01/16 12:14:46;;;;;;;20.60;3.22;;;;;;;6.38;100.00;100438.38;4878765;29;20029;-80
2022/01/16 12:17:44;;;;;;;18.35;3.30;;;;;;;6.38;100.00;100426.84;4918462;29;20016;-80
2022/01/16 12:20:15;;;;;;;21.45;3.80;;;;;;;6.57;100.00;100426.34;4917277;29;20106;-81
2022/01/16 12:22:55;;;;;;;17.90;3.00;;;;;;;6.63;100.00;100414.09;4913095;29;20134;-81
2022/01/16 12:25:37;;;;;;;25.15;4.53;;;;;;;6.65;100.00;100404.03;4935814;29;20039;-84
2022/01/16 12:28:25;;;;;;;19.30;2.97;;;;;;;6.67;100.00;100405.50;4919459;29;20028;-81
2022/01/16 12:31:07;;;;;;;20.30;3.63;;;;;;;6.71;100.00;100393.41;4913205;29;20032;-81
2022/01/16 12:33:43;;;;;;;22.95;4.35;;;;;;;6.76;100.00;100388.38;4909515;29;20076;-81
2022/01/16 12:36:17;;;;;;;22.67;4.28;;;;;;;6.77;100.00;100389.19;4911907;29;20033;-82
2022/01/16 12:38:52;;;;;;;24.87;4.33;;;;;;;6.79;100.00;100387.19;4908947;29;20210;-83
2022/01/16 12:41:51;;;;;;;21.13;4.25;;;;;;;6.71;100.00;100371.22;4906681;29;20048;-81
2022/01/16 12:44:18;;;;;;;23.73;3.80;;;;;;;6.64;100.00;100355.06;4897874;29;20371;-81
2022/01/16 12:46:48;;;;;;;22.38;4.35;;;;;;;6.70;100.00;100369.56;4917650;29;20036;-85
2022/01/16 12:49:17;;;;;;;17.05;3.58;;;;;;;6.72;100.00;100371.03;4916137;29;20455;-83
2022/01/16 12:51:45;;;;;;;24.30;3.60;;;;;;;6.72;100.00;100346.97;4911069;29;20082;-82
2022/01/16 12:54:13;;;;;;;15.93;3.40;;;;;;;6.61;100.00;100338.56;4907902;29;20028;-82
2022/01/16 12:56:42;;;;;;;23.55;4.25;;;;;;;6.72;100.00;100354.16;4897165;29;20150;-82
2022/01/16 12:59:19;;;;;;;26.05;4.60;;;;;;;6.70;100.00;100335.63;4907633;29;20084;-81
2022/01/16 13:01:52;;;;;;;24.80;3.95;;;;;;;6.82;100.00;100344.84;4908379;29;20032;-81
2022/01/16 13:04:23;;;;;;;22.42;4.45;;;;;;;6.79;100.00;100336.38;4900884;29;20048;-80
2022/01/16 13:06:48;;;;;;;19.23;2.92;;;;;;;6.85;100.00;100314.19;4903299;29;20025;-80
2022/01/16 13:09:14;;;;;;;26.52;4.63;;;;;;;6.76;100.00;100310.81;4887098;29;20119;-80
2022/01/16 13:11:47;;;;;;;22.88;4.47;;;;;;;6.70;100.00;100305.38;4902365;29;20021;-79
2022/01/16 13:14:37;;;;;;;23.38;3.72;;;;;;;6.72;100.00;100327.41;4899766;29;20040;-80
2022/01/16 13:17:10;;;;;;;33.40;4.22;;;;;;;6.68;100.00;100328.78;4892931;29;20119;-81
2022/01/16 13:19:51;;;;;;;18.83;3.50;;;;;;;6.67;100.00;100329.81;4905210;29;20111;-79
2022/01/16 13:22:27;;;;;;;18.23;3.05;;;;;;;6.78;100.00;100324.00;4902049;29;20028;-82